Arverne, New York
Current Conditions -  °F | °C
As of 4:51 PM on Monday 20 Oct 2014 (Local Time) from KJFK Reporting Station
Broken Clouds Broken Clouds  
Wind Chill: 61°   Ceiling: 26000
Heat Index: 61°   Visibility: 10mi
Dew Point: 40°   Wind: 15mph
Humidity: 46%   Direction: 180°S
Pressure: 29.99"   Gusts: NA
Location:  40.59°N, 73.8°W
Report Text: KJFK 202051Z 18013KT 10SM FEW050 SCT150 BKN260 16/04 A2999 RMK AO2 SLP156 T01610044 58022
Loading
Personal Weather Stations






























Interactive Weather Map
Tropical Storm Tracking
New forecast layout! Learn more

10-Day Weather Forecast

Advertisements
Track Severe Weather on mobile